sensor_id;sensor_type;location;lat;lon;timestamp;P1;durP1;ratioP1;P2;durP2;ratioP2
55987;SDS011;67216;50.930;4.514;2023-02-27T00:01:42;6.30;;;2.05;;
55987;SDS011;67216;50.930;4.514;2023-02-27T00:04:08;9.00;;;2.58;;
55987;SDS011;67216;50.930;4.514;2023-02-27T00:06:34;7.80;;;2.35;;
55987;SDS011;67216;50.930;4.514;2023-02-27T00:09:01;9.70;;;2.42;;
55987;SDS011;67216;50.930;4.514;2023-02-27T00:11:27;6.10;;;1.90;;
55987;SDS011;67216;50.930;4.514;2023-02-27T00:13:53;10.98;;;2.17;;
55987;SDS011;67216;50.930;4.514;2023-02-27T00:16:19;9.10;;;2.30;;
55987;SDS011;67216;50.930;4.514;2023-02-27T00:18:44;8.88;;;2.50;;
55987;SDS011;67216;50.930;4.514;2023-02-27T00:21:12;8.10;;;2.00;;
55987;SDS011;67216;50.930;4.514;2023-02-27T00:23:43;11.45;;;2.10;;
55987;SDS011;67216;50.930;4.514;2023-02-27T00:26:08;8.80;;;2.03;;
55987;SDS011;67216;50.930;4.514;2023-02-27T00:28:34;8.27;;;1.90;;
55987;SDS011;67216;50.930;4.514;2023-02-27T00:31:00;8.68;;;1.90;;
55987;SDS011;67216;50.930;4.514;2023-02-27T00:33:28;10.55;;;2.42;;
55987;SDS011;67216;50.930;4.514;2023-02-27T00:35:55;11.15;;;2.17;;
55987;SDS011;67216;50.930;4.514;2023-02-27T00:38:27;11.05;;;2.33;;
55987;SDS011;67216;50.930;4.514;2023-02-27T00:40:53;7.00;;;2.27;;
55987;SDS011;67216;50.930;4.514;2023-02-27T00:43:19;8.57;;;2.10;;
55987;SDS011;67216;50.930;4.514;2023-02-27T00:45:46;9.90;;;2.22;;
55987;SDS011;67216;50.930;4.514;2023-02-27T00:48:14;9.32;;;2.00;;
55987;SDS011;67216;50.930;4.514;2023-02-27T00:50:40;15.07;;;2.35;;
55987;SDS011;67216;50.930;4.514;2023-02-27T00:53:06;6.70;;;2.40;;
55987;SDS011;67216;50.930;4.514;2023-02-27T00:55:35;10.13;;;2.35;;
55987;SDS011;67216;50.930;4.514;2023-02-27T00:58:01;8.33;;;2.33;;
55987;SDS011;67216;50.930;4.514;2023-02-27T01:00:34;4.88;;;1.73;;
55987;SDS011;67216;50.930;4.514;2023-02-27T01:02:59;10.80;;;2.45;;
55987;SDS011;67216;50.930;4.514;2023-02-27T01:05:25;12.07;;;2.53;;
55987;SDS011;67216;50.930;4.514;2023-02-27T01:07:51;11.27;;;3.28;;
55987;SDS011;67216;50.930;4.514;2023-02-27T01:10:18;9.77;;;2.45;;
55987;SDS011;67216;50.930;4.514;2023-02-27T01:12:43;7.65;;;1.90;;
55987;SDS011;67216;50.930;4.514;2023-02-27T01:15:11;8.73;;;2.50;;
55987;SDS011;67216;50.930;4.514;2023-02-27T01:17:38;9.80;;;2.47;;
55987;SDS011;67216;50.930;4.514;2023-02-27T01:20:05;6.43;;;2.20;;
55987;SDS011;67216;50.930;4.514;2023-02-27T01:22:31;8.70;;;2.10;;
55987;SDS011;67216;50.930;4.514;2023-02-27T01:24:58;8.40;;;2.85;;
55987;SDS011;67216;50.930;4.514;2023-02-27T01:27:24;8.57;;;2.00;;
55987;SDS011;67216;50.930;4.514;2023-02-27T01:29:53;15.43;;;2.78;;
55987;SDS011;67216;50.930;4.514;2023-02-27T01:32:19;8.30;;;2.35;;
55987;SDS011;67216;50.930;4.514;2023-02-27T01:34:44;8.68;;;2.33;;
55987;SDS011;67216;50.930;4.514;2023-02-27T01:37:10;11.80;;;3.05;;
55987;SDS011;67216;50.930;4.514;2023-02-27T01:39:36;9.45;;;2.22;;
55987;SDS011;67216;50.930;4.514;2023-02-27T01:42:02;10.68;;;2.42;;
55987;SDS011;67216;50.930;4.514;2023-02-27T01:44:32;8.60;;;2.25;;
55987;SDS011;67216;50.930;4.514;2023-02-27T01:47:47;7.13;;;2.17;;
55987;SDS011;67216;50.930;4.514;2023-02-27T01:50:15;5.65;;;2.13;;
55987;SDS011;67216;50.930;4.514;2023-02-27T01:52:44;8.13;;;2.47;;
55987;SDS011;67216;50.930;4.514;2023-02-27T01:55:14;8.15;;;2.83;;
55987;SDS011;67216;50.930;4.514;2023-02-27T01:57:40;9.05;;;2.20;;
55987;SDS011;67216;50.930;4.514;2023-02-27T02:02:37;7.72;;;2.50;;
55987;SDS011;67216;50.930;4.514;2023-02-27T02:05:06;6.90;;;2.15;;
55987;SDS011;67216;50.930;4.514;2023-02-27T02:07:33;7.50;;;2.30;;
55987;SDS011;67216;50.930;4.514;2023-02-27T02:10:02;14.95;;;3.40;;
55987;SDS011;67216;50.930;4.514;2023-02-27T02:12:35;9.25;;;2.83;;
55987;SDS011;67216;50.930;4.514;2023-02-27T02:15:02;11.38;;;2.33;;
55987;SDS011;67216;50.930;4.514;2023-02-27T02:17:33;6.15;;;1.95;;
55987;SDS011;67216;50.930;4.514;2023-02-27T02:31:00;7.75;;;2.72;;
55987;SDS011;67216;50.930;4.514;2023-02-27T02:34:33;8.77;;;2.58;;
55987;SDS011;67216;50.930;4.514;2023-02-27T02:44:53;9.32;;;2.40;;
55987;SDS011;67216;50.930;4.514;2023-02-27T02:53:20;8.38;;;2.42;;
55987;SDS011;67216;50.930;4.514;2023-02-27T02:55:52;6.43;;;2.60;;
55987;SDS011;67216;50.930;4.514;2023-02-27T02:58:29;8.63;;;2.60;;
55987;SDS011;67216;50.930;4.514;2023-02-27T03:01:20;10.98;;;3.38;;
55987;SDS011;67216;50.930;4.514;2023-02-27T03:06:56;10.65;;;2.65;;
55987;SDS011;67216;50.930;4.514;2023-02-27T03:09:40;9.13;;;3.15;;
55987;SDS011;67216;50.930;4.514;2023-02-27T03:12:11;11.80;;;3.33;;
55987;SDS011;67216;50.930;4.514;2023-02-27T03:17:28;12.00;;;3.10;;
55987;SDS011;67216;50.930;4.514;2023-02-27T03:20:07;9.50;;;2.47;;
55987;SDS011;67216;50.930;4.514;2023-02-27T03:22:41;9.63;;;2.67;;
55987;SDS011;67216;50.930;4.514;2023-02-27T03:25:12;9.07;;;2.72;;
55987;SDS011;67216;50.930;4.514;2023-02-27T03:30:36;9.02;;;2.40;;
55987;SDS011;67216;50.930;4.514;2023-02-27T03:33:14;7.50;;;2.60;;
55987;SDS011;67216;50.930;4.514;2023-02-27T03:36:03;7.95;;;2.85;;
55987;SDS011;67216;50.930;4.514;2023-02-27T03:38:43;10.50;;;3.65;;
55987;SDS011;67216;50.930;4.514;2023-02-27T03:41:13;9.63;;;2.72;;
55987;SDS011;67216;50.930;4.514;2023-02-27T03:46:23;14.02;;;2.70;;
55987;SDS011;67216;50.930;4.514;2023-02-27T03:48:54;9.23;;;2.15;;
55987;SDS011;67216;50.930;4.514;2023-02-27T03:51:20;8.13;;;2.55;;
55987;SDS011;67216;50.930;4.514;2023-02-27T03:54:05;7.45;;;2.85;;
55987;SDS011;67216;50.930;4.514;2023-02-27T03:59:30;14.20;;;3.08;;
55987;SDS011;67216;50.930;4.514;2023-02-27T04:01:58;8.77;;;2.33;;
55987;SDS011;67216;50.930;4.514;2023-02-27T04:04:28;13.90;;;2.55;;
55987;SDS011;67216;50.930;4.514;2023-02-27T04:06:57;6.55;;;2.75;;
55987;SDS011;67216;50.930;4.514;2023-02-27T04:09:54;13.32;;;3.53;;
55987;SDS011;67216;50.930;4.514;2023-02-27T04:20:55;8.30;;;2.83;;
55987;SDS011;67216;50.930;4.514;2023-02-27T04:23:50;10.45;;;3.47;;
55987;SDS011;67216;50.930;4.514;2023-02-27T04:26:47;12.75;;;2.80;;
55987;SDS011;67216;50.930;4.514;2023-02-27T04:29:37;8.52;;;3.00;;
55987;SDS011;67216;50.930;4.514;2023-02-27T04:32:12;10.63;;;3.13;;
55987;SDS011;67216;50.930;4.514;2023-02-27T04:34:59;11.15;;;3.40;;
55987;SDS011;67216;50.930;4.514;2023-02-27T04:37:47;7.93;;;3.30;;
55987;SDS011;67216;50.930;4.514;2023-02-27T04:40:20;9.48;;;3.20;;
55987;SDS011;67216;50.930;4.514;2023-02-27T04:42:54;10.32;;;3.40;;
55987;SDS011;67216;50.930;4.514;2023-02-27T04:45:23;11.60;;;2.90;;
55987;SDS011;67216;50.930;4.514;2023-02-27T04:47:55;9.90;;;3.05;;
55987;SDS011;67216;50.930;4.514;2023-02-27T04:50:35;10.48;;;3.10;;
55987;SDS011;67216;50.930;4.514;2023-02-27T04:53:08;9.60;;;3.22;;
55987;SDS011;67216;50.930;4.514;2023-02-27T04:56:04;7.43;;;3.08;;
55987;SDS011;67216;50.930;4.514;2023-02-27T04:58:44;12.27;;;4.20;;
55987;SDS011;67216;50.930;4.514;2023-02-27T05:01:18;16.02;;;4.30;;
55987;SDS011;67216;50.930;4.514;2023-02-27T05:03:51;9.00;;;3.42;;
55987;SDS011;67216;50.930;4.514;2023-02-27T05:06:19;12.40;;;3.22;;
55987;SDS011;67216;50.930;4.514;2023-02-27T05:11:49;11.13;;;3.60;;
55987;SDS011;67216;50.930;4.514;2023-02-27T05:17:01;9.88;;;3.28;;
55987;SDS011;67216;50.930;4.514;2023-02-27T05:19:31;8.15;;;3.47;;
55987;SDS011;67216;50.930;4.514;2023-02-27T05:24:56;10.32;;;3.90;;
55987;SDS011;67216;50.930;4.514;2023-02-27T05:33:32;10.75;;;3.50;;
55987;SDS011;67216;50.930;4.514;2023-02-27T05:36:10;10.20;;;3.30;;
55987;SDS011;67216;50.930;4.514;2023-02-27T05:38:43;6.82;;;3.50;;
55987;SDS011;67216;50.930;4.514;2023-02-27T05:41:14;8.77;;;3.28;;
55987;SDS011;67216;50.930;4.514;2023-02-27T05:43:45;10.75;;;4.15;;
55987;SDS011;67216;50.930;4.514;2023-02-27T05:46:25;12.95;;;4.15;;
55987;SDS011;67216;50.930;4.514;2023-02-27T05:49:14;7.90;;;3.78;;
55987;SDS011;67216;50.930;4.514;2023-02-27T05:51:50;11.52;;;4.05;;
55987;SDS011;67216;50.930;4.514;2023-02-27T05:56:57;11.13;;;4.33;;
55987;SDS011;67216;50.930;4.514;2023-02-27T05:59:29;13.47;;;4.03;;
55987;SDS011;67216;50.930;4.514;2023-02-27T06:01:59;14.38;;;5.22;;
55987;SDS011;67216;50.930;4.514;2023-02-27T06:04:25;11.05;;;4.43;;
55987;SDS011;67216;50.930;4.514;2023-02-27T06:06:53;12.95;;;4.45;;
55987;SDS011;67216;50.930;4.514;2023-02-27T06:09:19;11.82;;;4.00;;
55987;SDS011;67216;50.930;4.514;2023-02-27T06:11:45;11.27;;;3.83;;
55987;SDS011;67216;50.930;4.514;2023-02-27T06:14:10;14.43;;;3.97;;
55987;SDS011;67216;50.930;4.514;2023-02-27T06:16:36;18.15;;;4.85;;
55987;SDS011;67216;50.930;4.514;2023-02-27T06:19:03;11.43;;;4.90;;
55987;SDS011;67216;50.930;4.514;2023-02-27T06:21:31;12.82;;;4.43;;
55987;SDS011;67216;50.930;4.514;2023-02-27T06:23:57;12.40;;;4.20;;
55987;SDS011;67216;50.930;4.514;2023-02-27T06:26:23;13.70;;;4.55;;
55987;SDS011;67216;50.930;4.514;2023-02-27T06:28:49;16.83;;;4.80;;
55987;SDS011;67216;50.930;4.514;2023-02-27T06:31:18;12.98;;;5.22;;
55987;SDS011;67216;50.930;4.514;2023-02-27T06:33:43;13.68;;;4.50;;
55987;SDS011;67216;50.930;4.514;2023-02-27T06:36:09;10.43;;;4.53;;
55987;SDS011;67216;50.930;4.514;2023-02-27T06:38:34;14.27;;;4.10;;
55987;SDS011;67216;50.930;4.514;2023-02-27T06:41:01;16.30;;;5.03;;
55987;SDS011;67216;50.930;4.514;2023-02-27T06:43:30;11.23;;;4.25;;
55987;SDS011;67216;50.930;4.514;2023-02-27T06:45:58;13.27;;;4.35;;
55987;SDS011;67216;50.930;4.514;2023-02-27T06:48:27;12.88;;;4.57;;
55987;SDS011;67216;50.930;4.514;2023-02-27T06:50:53;9.27;;;3.75;;
55987;SDS011;67216;50.930;4.514;2023-02-27T06:53:20;12.50;;;3.55;;
55987;SDS011;67216;50.930;4.514;2023-02-27T06:55:47;13.52;;;3.78;;
55987;SDS011;67216;50.930;4.514;2023-02-27T06:58:13;11.30;;;3.35;;
55987;SDS011;67216;50.930;4.514;2023-02-27T07:00:42;10.90;;;3.35;;
55987;SDS011;67216;50.930;4.514;2023-02-27T07:03:08;11.43;;;3.95;;
55987;SDS011;67216;50.930;4.514;2023-02-27T07:05:34;6.65;;;3.35;;
55987;SDS011;67216;50.930;4.514;2023-02-27T07:08:01;8.18;;;3.25;;
55987;SDS011;67216;50.930;4.514;2023-02-27T07:10:29;7.00;;;3.07;;
55987;SDS011;67216;50.930;4.514;2023-02-27T07:12:57;7.35;;;3.10;;
55987;SDS011;67216;50.930;4.514;2023-02-27T07:15:24;8.02;;;3.40;;
55987;SDS011;67216;50.930;4.514;2023-02-27T07:17:49;6.38;;;2.70;;
55987;SDS011;67216;50.930;4.514;2023-02-27T07:20:17;7.90;;;3.40;;
55987;SDS011;67216;50.930;4.514;2023-02-27T07:22:46;5.28;;;3.20;;
55987;SDS011;67216;50.930;4.514;2023-02-27T07:25:14;10.68;;;3.22;;
55987;SDS011;67216;50.930;4.514;2023-02-27T07:27:40;8.48;;;3.30;;
55987;SDS011;67216;50.930;4.514;2023-02-27T07:30:08;11.02;;;4.10;;
55987;SDS011;67216;50.930;4.514;2023-02-27T07:32:40;10.85;;;3.72;;
55987;SDS011;67216;50.930;4.514;2023-02-27T07:35:08;9.80;;;3.80;;
55987;SDS011;67216;50.930;4.514;2023-02-27T07:37:34;8.65;;;3.60;;
55987;SDS011;67216;50.930;4.514;2023-02-27T07:40:00;8.80;;;4.10;;
55987;SDS011;67216;50.930;4.514;2023-02-27T07:42:26;8.63;;;3.58;;
55987;SDS011;67216;50.930;4.514;2023-02-27T07:44:51;13.77;;;3.72;;
55987;SDS011;67216;50.930;4.514;2023-02-27T07:47:17;8.18;;;4.10;;
55987;SDS011;67216;50.930;4.514;2023-02-27T07:49:45;11.63;;;4.47;;
55987;SDS011;67216;50.930;4.514;2023-02-27T07:52:11;8.10;;;3.80;;
55987;SDS011;67216;50.930;4.514;2023-02-27T07:54:37;8.63;;;4.40;;
55987;SDS011;67216;50.930;4.514;2023-02-27T07:57:04;13.68;;;4.55;;
55987;SDS011;67216;50.930;4.514;2023-02-27T07:59:33;10.40;;;4.22;;
55987;SDS011;67216;50.930;4.514;2023-02-27T08:01:58;10.98;;;3.75;;
55987;SDS011;67216;50.930;4.514;2023-02-27T08:04:24;9.48;;;3.78;;
55987;SDS011;67216;50.930;4.514;2023-02-27T08:06:53;9.77;;;5.03;;
55987;SDS011;67216;50.930;4.514;2023-02-27T08:09:19;7.72;;;3.67;;
55987;SDS011;67216;50.930;4.514;2023-02-27T08:11:45;13.13;;;5.13;;
55987;SDS011;67216;50.930;4.514;2023-02-27T08:14:11;8.90;;;4.63;;
55987;SDS011;67216;50.930;4.514;2023-02-27T08:16:36;6.38;;;4.03;;
55987;SDS011;67216;50.930;4.514;2023-02-27T08:19:02;9.90;;;3.95;;
55987;SDS011;67216;50.930;4.514;2023-02-27T08:21:28;11.48;;;3.97;;
55987;SDS011;67216;50.930;4.514;2023-02-27T08:23:53;7.55;;;4.05;;
55987;SDS011;67216;50.930;4.514;2023-02-27T08:26:19;11.43;;;4.75;;
55987;SDS011;67216;50.930;4.514;2023-02-27T08:28:45;8.20;;;4.03;;
55987;SDS011;67216;50.930;4.514;2023-02-27T08:31:14;10.02;;;4.10;;
55987;SDS011;67216;50.930;4.514;2023-02-27T08:33:40;12.25;;;5.20;;
55987;SDS011;67216;50.930;4.514;2023-02-27T08:36:05;9.82;;;4.25;;
55987;SDS011;67216;50.930;4.514;2023-02-27T08:38:32;11.80;;;5.03;;
55987;SDS011;67216;50.930;4.514;2023-02-27T08:41:00;8.52;;;4.28;;
55987;SDS011;67216;50.930;4.514;2023-02-27T08:43:25;10.55;;;4.30;;
55987;SDS011;67216;50.930;4.514;2023-02-27T08:45:51;8.68;;;4.72;;
55987;SDS011;67216;50.930;4.514;2023-02-27T08:48:19;11.20;;;4.57;;
55987;SDS011;67216;50.930;4.514;2023-02-27T08:50:47;12.38;;;4.38;;
55987;SDS011;67216;50.930;4.514;2023-02-27T08:53:13;12.02;;;4.72;;
55987;SDS011;67216;50.930;4.514;2023-02-27T08:55:39;9.48;;;4.88;;
55987;SDS011;67216;50.930;4.514;2023-02-27T08:58:06;9.43;;;4.68;;
55987;SDS011;67216;50.930;4.514;2023-02-27T09:00:32;15.30;;;5.57;;
55987;SDS011;67216;50.930;4.514;2023-02-27T09:03:00;11.13;;;4.82;;
55987;SDS011;67216;50.930;4.514;2023-02-27T09:05:26;9.20;;;5.05;;
55987;SDS011;67216;50.930;4.514;2023-02-27T09:07:52;12.90;;;5.30;;
55987;SDS011;67216;50.930;4.514;2023-02-27T09:10:18;12.63;;;4.90;;
55987;SDS011;67216;50.930;4.514;2023-02-27T09:12:46;15.65;;;4.60;;
55987;SDS011;67216;50.930;4.514;2023-02-27T09:15:13;11.68;;;5.03;;
55987;SDS011;67216;50.930;4.514;2023-02-27T09:17:39;9.30;;;4.30;;
55987;SDS011;67216;50.930;4.514;2023-02-27T09:20:05;9.68;;;4.55;;
55987;SDS011;67216;50.930;4.514;2023-02-27T09:22:33;11.38;;;4.50;;
55987;SDS011;67216;50.930;4.514;2023-02-27T09:25:02;9.65;;;4.18;;
55987;SDS011;67216;50.930;4.514;2023-02-27T09:27:28;7.50;;;3.97;;
55987;SDS011;67216;50.930;4.514;2023-02-27T09:29:54;7.15;;;3.55;;
55987;SDS011;67216;50.930;4.514;2023-02-27T09:32:23;10.55;;;3.75;;
55987;SDS011;67216;50.930;4.514;2023-02-27T09:34:50;10.15;;;4.07;;
55987;SDS011;67216;50.930;4.514;2023-02-27T09:37:16;11.63;;;3.35;;
55987;SDS011;67216;50.930;4.514;2023-02-27T09:39:43;7.38;;;3.65;;
55987;SDS011;67216;50.930;4.514;2023-02-27T09:42:16;6.78;;;3.60;;
55987;SDS011;67216;50.930;4.514;2023-02-27T09:44:45;7.07;;;3.17;;
55987;SDS011;67216;50.930;4.514;2023-02-27T09:50:41;8.90;;;4.00;;
55987;SDS011;67216;50.930;4.514;2023-02-27T09:52:40;8.48;;;3.20;;
55987;SDS011;67216;50.930;4.514;2023-02-27T09:55:10;8.00;;;3.50;;
55987;SDS011;67216;50.930;4.514;2023-02-27T09:58:03;9.05;;;3.67;;
55987;SDS011;67216;50.930;4.514;2023-02-27T10:00:58;6.70;;;3.20;;
55987;SDS011;67216;50.930;4.514;2023-02-27T10:07:13;10.38;;;3.03;;
55987;SDS011;67216;50.930;4.514;2023-02-27T10:20:38;8.30;;;2.97;;
55987;SDS011;67216;50.930;4.514;2023-02-27T10:23:17;7.70;;;3.15;;
55987;SDS011;67216;50.930;4.514;2023-02-27T10:25:46;8.18;;;2.95;;
55987;SDS011;67216;50.930;4.514;2023-02-27T10:28:17;7.55;;;2.60;;
55987;SDS011;67216;50.930;4.514;2023-02-27T10:30:49;7.10;;;2.90;;
55987;SDS011;67216;50.930;4.514;2023-02-27T10:36:06;6.80;;;2.53;;
55987;SDS011;67216;50.930;4.514;2023-02-27T10:38:42;6.68;;;2.50;;
55987;SDS011;67216;50.930;4.514;2023-02-27T10:41:15;6.50;;;2.50;;
55987;SDS011;67216;50.930;4.514;2023-02-27T10:43:45;5.80;;;2.13;;
55987;SDS011;67216;50.930;4.514;2023-02-27T10:46:33;5.45;;;2.40;;
55987;SDS011;67216;50.930;4.514;2023-02-27T10:49:05;7.45;;;2.40;;
55987;SDS011;67216;50.930;4.514;2023-02-27T10:51:45;4.55;;;2.25;;
55987;SDS011;67216;50.930;4.514;2023-02-27T10:54:27;10.48;;;2.65;;
55987;SDS011;67216;50.930;4.514;2023-02-27T10:56:54;9.13;;;2.53;;
55987;SDS011;67216;50.930;4.514;2023-02-27T11:01:48;7.25;;;2.47;;
55987;SDS011;67216;50.930;4.514;2023-02-27T11:04:36;11.63;;;3.22;;
55987;SDS011;67216;50.930;4.514;2023-02-27T11:07:13;5.90;;;2.80;;
55987;SDS011;67216;50.930;4.514;2023-02-27T11:09:50;9.02;;;2.65;;
55987;SDS011;67216;50.930;4.514;2023-02-27T11:12:28;9.45;;;2.65;;
55987;SDS011;67216;50.930;4.514;2023-02-27T11:14:59;6.57;;;2.80;;
55987;SDS011;67216;50.930;4.514;2023-02-27T11:17:31;5.90;;;2.58;;
55987;SDS011;67216;50.930;4.514;2023-02-27T11:19:59;7.95;;;3.00;;
55987;SDS011;67216;50.930;4.514;2023-02-27T11:22:30;7.88;;;3.38;;
55987;SDS011;67216;50.930;4.514;2023-02-27T11:25:16;5.13;;;2.50;;
55987;SDS011;67216;50.930;4.514;2023-02-27T11:27:42;5.22;;;2.28;;
55987;SDS011;67216;50.930;4.514;2023-02-27T11:30:21;3.65;;;2.45;;
55987;SDS011;67216;50.930;4.514;2023-02-27T11:32:56;5.28;;;2.53;;
55987;SDS011;67216;50.930;4.514;2023-02-27T11:37:59;4.85;;;2.20;;
55987;SDS011;67216;50.930;4.514;2023-02-27T11:40:30;3.83;;;1.75;;
55987;SDS011;67216;50.930;4.514;2023-02-27T11:43:02;6.93;;;2.33;;
55987;SDS011;67216;50.930;4.514;2023-02-27T11:45:39;7.30;;;2.53;;
55987;SDS011;67216;50.930;4.514;2023-02-27T11:48:10;6.75;;;2.42;;
55987;SDS011;67216;50.930;4.514;2023-02-27T11:53:36;4.80;;;2.30;;
55987;SDS011;67216;50.930;4.514;2023-02-27T11:56:31;6.82;;;2.50;;
55987;SDS011;67216;50.930;4.514;2023-02-27T12:01:32;8.40;;;2.63;;
55987;SDS011;67216;50.930;4.514;2023-02-27T12:12:13;5.22;;;1.75;;
55987;SDS011;67216;50.930;4.514;2023-02-27T12:20:21;4.63;;;2.30;;
55987;SDS011;67216;50.930;4.514;2023-02-27T12:22:50;7.85;;;2.03;;
55987;SDS011;67216;50.930;4.514;2023-02-27T12:25:25;6.03;;;2.35;;
55987;SDS011;67216;50.930;4.514;2023-02-27T12:28:11;4.25;;;2.03;;
55987;SDS011;67216;50.930;4.514;2023-02-27T12:30:59;6.40;;;2.20;;
55987;SDS011;67216;50.930;4.514;2023-02-27T12:33:48;3.78;;;1.90;;
55987;SDS011;67216;50.930;4.514;2023-02-27T12:38:52;5.15;;;2.20;;
55987;SDS011;67216;50.930;4.514;2023-02-27T12:50:10;6.22;;;1.90;;
55987;SDS011;67216;50.930;4.514;2023-02-27T12:53:03;3.95;;;2.03;;
55987;SDS011;67216;50.930;4.514;2023-02-27T12:55:57;6.75;;;2.30;;
55987;SDS011;67216;50.930;4.514;2023-02-27T13:07:20;4.95;;;1.80;;
55987;SDS011;67216;50.930;4.514;2023-02-27T13:09:57;4.38;;;2.13;;
55987;SDS011;67216;50.930;4.514;2023-02-27T13:12:35;3.10;;;1.67;;
55987;SDS011;67216;50.930;4.514;2023-02-27T13:17:40;5.63;;;1.75;;
55987;SDS011;67216;50.930;4.514;2023-02-27T13:25:37;5.63;;;1.95;;
55987;SDS011;67216;50.930;4.514;2023-02-27T13:28:10;5.45;;;1.90;;
55987;SDS011;67216;50.930;4.514;2023-02-27T13:30:41;2.35;;;1.52;;
55987;SDS011;67216;50.930;4.514;2023-02-27T13:33:33;4.63;;;2.03;;
55987;SDS011;67216;50.930;4.514;2023-02-27T13:44:52;5.18;;;1.90;;
55987;SDS011;67216;50.930;4.514;2023-02-27T13:52:46;4.05;;;1.92;;
55987;SDS011;67216;50.930;4.514;2023-02-27T13:57:59;8.55;;;2.40;;
55987;SDS011;67216;50.930;4.514;2023-02-27T14:00:29;6.20;;;3.47;;
55987;SDS011;67216;50.930;4.514;2023-02-27T14:03:05;4.10;;;1.95;;
55987;SDS011;67216;50.930;4.514;2023-02-27T14:05:35;7.63;;;2.28;;
55987;SDS011;67216;50.930;4.514;2023-02-27T14:26:55;4.63;;;1.90;;
55987;SDS011;67216;50.930;4.514;2023-02-27T14:29:22;6.32;;;1.80;;
55987;SDS011;67216;50.930;4.514;2023-02-27T14:31:57;3.88;;;1.60;;
55987;SDS011;67216;50.930;4.514;2023-02-27T14:34:25;10.18;;;2.33;;
55987;SDS011;67216;50.930;4.514;2023-02-27T14:36:52;5.57;;;1.80;;
55987;SDS011;67216;50.930;4.514;2023-02-27T14:39:27;7.43;;;1.92;;
55987;SDS011;67216;50.930;4.514;2023-02-27T14:44:50;5.38;;;1.88;;
55987;SDS011;67216;50.930;4.514;2023-02-27T14:47:33;4.27;;;1.53;;
55987;SDS011;67216;50.930;4.514;2023-02-27T14:50:06;6.43;;;1.77;;
55987;SDS011;67216;50.930;4.514;2023-02-27T14:52:49;5.50;;;1.65;;
55987;SDS011;67216;50.930;4.514;2023-02-27T14:55:16;3.42;;;1.48;;
55987;SDS011;67216;50.930;4.514;2023-02-27T14:57:54;6.00;;;2.40;;
55987;SDS011;67216;50.930;4.514;2023-02-27T15:00:39;6.45;;;1.77;;
55987;SDS011;67216;50.930;4.514;2023-02-27T15:05:52;4.18;;;2.05;;
55987;SDS011;67216;50.930;4.514;2023-02-27T15:08:21;3.80;;;1.67;;
55987;SDS011;67216;50.930;4.514;2023-02-27T15:10:53;5.63;;;1.80;;
55987;SDS011;67216;50.930;4.514;2023-02-27T15:13:31;6.60;;;2.22;;
55987;SDS011;67216;50.930;4.514;2023-02-27T15:19:00;6.85;;;1.88;;
55987;SDS011;67216;50.930;4.514;2023-02-27T15:21:41;5.57;;;1.83;;
55987;SDS011;67216;50.930;4.514;2023-02-27T15:24:18;7.07;;;2.13;;
55987;SDS011;67216;50.930;4.514;2023-02-27T15:27:02;7.80;;;2.63;;
55987;SDS011;67216;50.930;4.514;2023-02-27T15:29:35;6.97;;;1.98;;
55987;SDS011;67216;50.930;4.514;2023-02-27T15:32:04;4.57;;;1.88;;
55987;SDS011;67216;50.930;4.514;2023-02-27T15:34:31;10.23;;;2.00;;
55987;SDS011;67216;50.930;4.514;2023-02-27T15:36:59;4.43;;;1.75;;
55987;SDS011;67216;50.930;4.514;2023-02-27T15:39:26;5.20;;;1.83;;
55987;SDS011;67216;50.930;4.514;2023-02-27T15:41:55;5.18;;;2.05;;
55987;SDS011;67216;50.930;4.514;2023-02-27T15:44:32;5.47;;;2.30;;
55987;SDS011;67216;50.930;4.514;2023-02-27T15:47:05;4.55;;;1.90;;
55987;SDS011;67216;50.930;4.514;2023-02-27T15:49:36;6.40;;;1.98;;
55987;SDS011;67216;50.930;4.514;2023-02-27T15:52:08;8.75;;;1.88;;
55987;SDS011;67216;50.930;4.514;2023-02-27T15:54:41;4.47;;;1.83;;
55987;SDS011;67216;50.930;4.514;2023-02-27T15:57:26;3.72;;;1.95;;
55987;SDS011;67216;50.930;4.514;2023-02-27T15:59:55;6.72;;;2.13;;
55987;SDS011;67216;50.930;4.514;2023-02-27T16:02:25;6.53;;;2.17;;
55987;SDS011;67216;50.930;4.514;2023-02-27T16:04:53;6.43;;;2.33;;
55987;SDS011;67216;50.930;4.514;2023-02-27T16:07:21;3.42;;;2.20;;
55987;SDS011;67216;50.930;4.514;2023-02-27T16:09:55;7.13;;;2.58;;
55987;SDS011;67216;50.930;4.514;2023-02-27T16:12:30;7.68;;;2.53;;
55987;SDS011;67216;50.930;4.514;2023-02-27T16:15:42;5.50;;;2.10;;
55987;SDS011;67216;50.930;4.514;2023-02-27T16:17:56;5.68;;;2.20;;
55987;SDS011;67216;50.930;4.514;2023-02-27T16:34:12;7.60;;;2.17;;
55987;SDS011;67216;50.930;4.514;2023-02-27T16:36:57;5.40;;;2.30;;
55987;SDS011;67216;50.930;4.514;2023-02-27T16:39:25;5.22;;;2.03;;
55987;SDS011;67216;50.930;4.514;2023-02-27T16:41:54;4.28;;;2.22;;
55987;SDS011;67216;50.930;4.514;2023-02-27T16:44:21;4.95;;;2.05;;
55987;SDS011;67216;50.930;4.514;2023-02-27T16:46:50;4.53;;;2.10;;
55987;SDS011;67216;50.930;4.514;2023-02-27T16:51:47;6.32;;;2.25;;
55987;SDS011;67216;50.930;4.514;2023-02-27T16:54:17;3.00;;;2.15;;
55987;SDS011;67216;50.930;4.514;2023-02-27T16:56:44;5.82;;;2.33;;
55987;SDS011;67216;50.930;4.514;2023-02-27T16:59:25;9.50;;;2.40;;
55987;SDS011;67216;50.930;4.514;2023-02-27T17:02:03;7.47;;;2.30;;
55987;SDS011;67216;50.930;4.514;2023-02-27T17:04:31;6.45;;;2.13;;
55987;SDS011;67216;50.930;4.514;2023-02-27T17:06:58;6.75;;;2.10;;
55987;SDS011;67216;50.930;4.514;2023-02-27T17:09:25;5.38;;;2.05;;
55987;SDS011;67216;50.930;4.514;2023-02-27T17:11:52;4.28;;;2.10;;
55987;SDS011;67216;50.930;4.514;2023-02-27T17:14:19;3.95;;;2.30;;
55987;SDS011;67216;50.930;4.514;2023-02-27T17:16:45;5.60;;;2.72;;
55987;SDS011;67216;50.930;4.514;2023-02-27T17:19:14;6.43;;;2.08;;
55987;SDS011;67216;50.930;4.514;2023-02-27T17:21:45;6.53;;;2.50;;
55987;SDS011;67216;50.930;4.514;2023-02-27T17:24:15;6.72;;;3.03;;
55987;SDS011;67216;50.930;4.514;2023-02-27T17:26:41;6.90;;;2.28;;
55987;SDS011;67216;50.930;4.514;2023-02-27T17:29:09;9.73;;;2.75;;
55987;SDS011;67216;50.930;4.514;2023-02-27T17:31:37;7.60;;;2.95;;
55987;SDS011;67216;50.930;4.514;2023-02-27T17:34:03;6.13;;;3.03;;
55987;SDS011;67216;50.930;4.514;2023-02-27T17:38:59;6.68;;;2.53;;
55987;SDS011;67216;50.930;4.514;2023-02-27T17:41:31;6.03;;;2.20;;
55987;SDS011;67216;50.930;4.514;2023-02-27T17:44:00;5.45;;;2.55;;
55987;SDS011;67216;50.930;4.514;2023-02-27T17:46:29;8.05;;;2.72;;
55987;SDS011;67216;50.930;4.514;2023-02-27T17:48:55;6.13;;;2.85;;
55987;SDS011;67216;50.930;4.514;2023-02-27T17:51:24;6.93;;;2.90;;
55987;SDS011;67216;50.930;4.514;2023-02-27T17:53:51;5.40;;;2.97;;
55987;SDS011;67216;50.930;4.514;2023-02-27T17:56:20;5.88;;;3.15;;
55987;SDS011;67216;50.930;4.514;2023-02-27T17:58:48;7.10;;;3.40;;
55987;SDS011;67216;50.930;4.514;2023-02-27T18:01:16;9.73;;;3.15;;
55987;SDS011;67216;50.930;4.514;2023-02-27T18:03:47;6.63;;;3.35;;
55987;SDS011;67216;50.930;4.514;2023-02-27T18:06:14;6.05;;;3.35;;
55987;SDS011;67216;50.930;4.514;2023-02-27T18:08:40;9.98;;;4.68;;
55987;SDS011;67216;50.930;4.514;2023-02-27T18:11:12;10.15;;;4.80;;
55987;SDS011;67216;50.930;4.514;2023-02-27T18:13:42;10.88;;;4.93;;
55987;SDS011;67216;50.930;4.514;2023-02-27T18:16:09;9.20;;;5.03;;
55987;SDS011;67216;50.930;4.514;2023-02-27T18:18:36;12.85;;;5.28;;
55987;SDS011;67216;50.930;4.514;2023-02-27T18:21:10;10.77;;;5.72;;
55987;SDS011;67216;50.930;4.514;2023-02-27T18:23:38;10.60;;;4.68;;
55987;SDS011;67216;50.930;4.514;2023-02-27T18:26:04;22.40;;;5.30;;
55987;SDS011;67216;50.930;4.514;2023-02-27T18:28:33;6.25;;;3.60;;
55987;SDS011;67216;50.930;4.514;2023-02-27T18:30:59;10.32;;;4.30;;